Time;durP1;ratioP1;P1;durP2;ratioP2;P2;SDS_P1;SDS_P2;PMS_P1;PMS_P2;Temp;Humidity;BMP_temperature;BMP_pressure;BME280_temperature;BME280_humidity;BME280_pressure;Samples;Min_cycle;Max_cycle;Signal;HPM_P1;HPM_P2
2022/03/13 00:00:21;;;;;;;;;;;;;;;11.59;36.50;101555.84;5052509;28;20086;-76
2022/03/13 00:02:47;;;;;;;;;;;;;;;11.60;35.63;101559.38;5052892;28;19951;-77
2022/03/13 00:05:16;;;;;;;;;;;;;;;12.02;35.25;101560.41;5053329;28;20309;-75
2022/03/13 00:07:42;;;;;;;;;;;;;;;11.67;35.66;101563.53;5053173;28;20388;-76
2022/03/13 00:10:08;;;;;;;;;;;;;;;11.50;36.15;101562.78;5052016;28;19921;-77
2022/03/13 00:12:35;;;;;;;;;;;;;;;12.01;35.48;101556.03;5053418;28;19917;-77
2022/03/13 00:15:03;;;;;;;;;;;;;;;11.37;36.35;101558.53;5053194;28;19928;-76
2022/03/13 00:17:29;;;;;;;;;;;;;;;11.52;36.04;101561.47;5052207;28;19916;-76
2022/03/13 00:20:02;;;;;;;;;;;;;;;11.79;35.60;101563.41;5053227;28;20438;-76
2022/03/13 00:22:27;;;;;;;;;;;;;;;11.53;35.91;101562.31;5052528;28;20256;-77
2022/03/13 00:24:53;;;;;;;;;;;;;;;11.63;35.55;101561.59;5052590;28;19924;-77
2022/03/13 00:27:18;;;;;;;;;;;;;;;11.16;36.67;101569.41;5052150;28;19921;-77
2022/03/13 00:29:44;;;;;;;;;;;;;;;11.51;36.01;101567.16;5052159;28;19920;-75
2022/03/13 00:32:09;;;;;;;;;;;;;;;11.58;35.91;101565.06;5053166;28;19913;-75
2022/03/13 00:34:35;;;;;;;;;;;;;;;11.75;35.28;101563.09;5052448;28;19944;-76
2022/03/13 00:37:00;;;;;;;;;;;;;;;11.62;35.65;101555.34;5052332;28;19927;-75
2022/03/13 00:39:26;;;;;;;;;;;;;;;11.29;36.20;101558.16;5055506;28;19927;-76
2022/03/13 00:41:51;;;;;;;;;;;;;;;11.40;35.97;101555.31;5054241;28;19948;-77
2022/03/13 00:44:17;;;;;;;;;;;;;;;11.80;35.07;101554.16;5055359;28;19921;-77
2022/03/13 00:46:42;;;;;;;;;;;;;;;11.70;35.37;101556.78;5055981;28;19913;-77
2022/03/13 00:49:08;;;;;;;;;;;;;;;11.37;36.12;101546.84;5054028;28;20353;-76
2022/03/13 00:51:33;;;;;;;;;;;;;;;11.33;35.79;101556.56;5053393;28;20305;-76
2022/03/13 00:53:58;;;;;;;;;;;;;;;11.70;35.27;101552.16;5054909;28;19924;-75
2022/03/13 00:56:24;;;;;;;;;;;;;;;11.33;36.01;101559.28;5054583;28;20008;-76
2022/03/13 00:58:49;;;;;;;;;;;;;;;11.40;35.91;101555.31;5055603;28;19921;-77
2022/03/13 01:01:16;;;;;;;;;;;;;;;11.43;35.57;101554.78;5059740;28;19925;-77
2022/03/13 01:03:44;;;;;;;;;;;;;;;11.44;35.93;101552.91;5055302;28;19974;-77
2022/03/13 01:06:10;;;;;;;;;;;;;;;11.39;35.69;101559.09;5055311;28;19927;-77
2022/03/13 01:08:35;;;;;;;;;;;;;;;11.25;36.14;101554.28;5055669;28;19924;-78
2022/03/13 01:11:04;;;;;;;;;;;;;;;11.41;35.61;101550.69;5021456;28;20542;-78
2022/03/13 01:13:30;;;;;;;;;;;;;;;11.44;35.65;101556.44;5055284;28;19969;-76
2022/03/13 01:16:11;;;;;;;;;;;;;;;11.43;35.24;101543.91;5055314;28;20411;-74
2022/03/13 01:18:39;;;;;;;;;;;;;;;11.47;35.40;101544.25;5069872;28;20384;-76
2022/03/13 01:21:04;;;;;;;;;;;;;;;11.53;35.51;101552.22;5054810;28;19925;-77
2022/03/13 01:23:29;;;;;;;;;;;;;;;11.25;36.09;101555.13;5036295;28;19936;-77
2022/03/13 01:26:15;;;;;;;;;;;;;;;11.25;36.03;101546.97;5055014;28;19924;-76
2022/03/13 01:28:40;;;;;;;;;;;;;;;11.44;35.21;101547.47;5054178;28;19952;-77
2022/03/13 01:31:06;;;;;;;;;;;;;;;11.50;35.56;101544.59;5042549;28;19945;-77
2022/03/13 01:33:32;;;;;;;;;;;;;;;11.23;35.93;101549.13;5034699;28;20022;-77
2022/03/13 01:35:57;;;;;;;;;;;;;;;11.64;34.90;101536.88;5028554;28;20008;-76
2022/03/13 01:38:24;;;;;;;;;;;;;;;11.72;34.58;101535.59;5014872;28;19917;-74
2022/03/13 01:40:49;;;;;;;;;;;;;;;11.35;35.80;101546.28;5015058;28;20427;-76
2022/03/13 01:43:15;;;;;;;;;;;;;;;11.43;35.47;101543.13;5014583;28;19922;-76
2022/03/13 01:45:40;;;;;;;;;;;;;;;11.30;35.29;101535.31;5038123;28;19930;-76
2022/03/13 01:48:06;;;;;;;;;;;;;;;11.51;35.15;101537.28;5023074;28;19928;-76
2022/03/13 01:50:32;;;;;;;;;;;;;;;11.53;35.22;101532.41;5053154;28;19925;-76
2022/03/13 01:52:57;;;;;;;;;;;;;;;11.06;35.87;101526.59;5054891;28;19917;-77
2022/03/13 01:55:22;;;;;;;;;;;;;;;11.17;35.71;101525.69;5053348;28;20427;-76
2022/03/13 01:57:47;;;;;;;;;;;;;;;11.47;35.00;101531.47;5053381;28;19925;-76
2022/03/13 02:00:14;;;;;;;;;;;;;;;11.59;34.92;101533.28;5053517;28;20345;-76
2022/03/13 02:02:43;;;;;;;;;;;;;;;11.17;35.84;101522.13;5053729;28;19928;-76
2022/03/13 02:05:18;;;;;;;;;;;;;;;11.45;35.22;101522.75;5053852;28;20001;-77
2022/03/13 02:07:45;;;;;;;;;;;;;;;11.58;34.71;101529.72;5053490;28;19948;-77
2022/03/13 02:10:10;;;;;;;;;;;;;;;11.55;35.02;101528.34;5053785;28;19921;-75
2022/03/13 02:12:35;;;;;;;;;;;;;;;11.52;35.23;101519.88;5055162;28;19921;-77
2022/03/13 02:15:01;;;;;;;;;;;;;;;11.20;35.57;101514.28;5053628;28;19929;-76
2022/03/13 02:17:27;;;;;;;;;;;;;;;11.29;35.56;101512.78;5053194;28;19917;-76
2022/03/13 02:19:54;;;;;;;;;;;;;;;11.25;35.66;101514.38;5053475;28;20357;-76
2022/03/13 02:22:20;;;;;;;;;;;;;;;11.42;35.54;101506.97;5053435;28;19921;-77
2022/03/13 02:24:48;;;;;;;;;;;;;;;11.31;35.69;101501.66;5053223;28;20000;-77
2022/03/13 02:27:18;;;;;;;;;;;;;;;11.59;35.09;101493.34;5033841;28;19925;-77
2022/03/13 02:29:44;;;;;;;;;;;;;;;11.48;35.07;101494.25;5013028;28;19926;-76
2022/03/13 02:32:09;;;;;;;;;;;;;;;11.37;35.29;101489.78;5013646;28;19917;-77
2022/03/13 02:34:34;;;;;;;;;;;;;;;11.39;35.33;101490.34;5012862;28;20289;-75
2022/03/13 02:37:02;;;;;;;;;;;;;;;11.48;35.69;101486.97;5020278;28;19925;-77
2022/03/13 02:39:28;;;;;;;;;;;;;;;11.09;36.29;101482.66;5027107;28;19980;-76
2022/03/13 02:41:54;;;;;;;;;;;;;;;11.06;36.15;101488.56;5032563;28;19952;-78
2022/03/13 02:44:19;;;;;;;;;;;;;;;11.36;35.91;101486.25;5046808;28;20321;-77
2022/03/13 02:46:47;;;;;;;;;;;;;;;11.05;36.27;101481.53;5047819;28;20311;-76
2022/03/13 02:49:14;;;;;;;;;;;;;;;11.43;35.44;101480.63;5035504;28;20350;-76
2022/03/13 02:51:39;;;;;;;;;;;;;;;11.17;35.99;101465.09;5043577;28;20377;-75
2022/03/13 02:54:04;;;;;;;;;;;;;;;11.03;36.31;101471.97;5051894;28;19967;-76
2022/03/13 02:56:30;;;;;;;;;;;;;;;11.34;35.90;101466.66;5052167;28;19917;-78
2022/03/13 02:58:55;;;;;;;;;;;;;;;11.23;35.64;101470.34;5052323;28;20401;-77
2022/03/13 03:01:21;;;;;;;;;;;;;;;11.39;35.37;101469.41;5051915;28;19924;-76
2022/03/13 03:03:47;;;;;;;;;;;;;;;11.52;35.13;101465.53;5051957;28;20058;-76
2022/03/13 03:06:13;;;;;;;;;;;;;;;10.93;36.19;101472.66;5050916;28;19956;-76
2022/03/13 03:08:38;;;;;;;;;;;;;;;11.25;35.76;101465.47;5052250;28;19928;-75
2022/03/13 03:11:04;;;;;;;;;;;;;;;11.18;36.06;101462.13;5052481;28;19913;-76
2022/03/13 03:13:29;;;;;;;;;;;;;;;11.18;36.04;101453.97;5052287;28;19928;-76
2022/03/13 03:15:54;;;;;;;;;;;;;;;11.10;36.21;101459.84;5052607;28;19952;-76
2022/03/13 03:18:20;;;;;;;;;;;;;;;11.28;35.87;101459.53;5052072;28;20410;-76
2022/03/13 03:20:45;;;;;;;;;;;;;;;11.13;35.84;101464.78;5052038;28;20425;-76
2022/03/13 03:23:10;;;;;;;;;;;;;;;10.60;36.82;101457.28;5052911;28;19916;-77
2022/03/13 03:25:35;;;;;;;;;;;;;;;11.08;35.74;101458.47;5052228;28;19925;-76
2022/03/13 03:28:19;;;;;;;;;;;;;;;10.38;37.35;101458.28;5051750;28;20066;-77
2022/03/13 03:30:44;;;;;;;;;;;;;;;10.32;37.51;101460.09;5049271;28;19978;-75
2022/03/13 03:33:10;;;;;;;;;;;;;;;10.22;37.43;101457.22;5049227;28;19917;-76
2022/03/13 03:35:35;;;;;;;;;;;;;;;10.28;37.17;101461.66;5051919;28;19929;-77
2022/03/13 03:38:01;;;;;;;;;;;;;;;10.41;37.12;101464.00;5052943;28;20361;-76
2022/03/13 03:40:28;;;;;;;;;;;;;;;10.27;37.38;101467.31;5052153;28;19920;-76
2022/03/13 03:42:58;;;;;;;;;;;;;;;10.67;36.62;101474.22;5052530;28;19927;-76
2022/03/13 03:45:23;;;;;;;;;;;;;;;10.72;36.34;101476.19;5051987;28;19925;-76
2022/03/13 03:47:48;;;;;;;;;;;;;;;10.89;36.14;101471.53;5052130;28;19920;-76
2022/03/13 03:50:14;;;;;;;;;;;;;;;10.96;35.92;101477.56;5052245;28;19913;-76
2022/03/13 03:52:40;;;;;;;;;;;;;;;10.77;36.42;101470.81;5051646;28;19952;-76
2022/03/13 03:55:05;;;;;;;;;;;;;;;10.63;36.72;101489.34;5051915;28;19935;-76
2022/03/13 03:57:31;;;;;;;;;;;;;;;11.00;35.85;101494.22;5051508;28;20977;-75
2022/03/13 03:59:56;;;;;;;;;;;;;;;11.10;35.62;101495.16;5052079;28;20387;-76
2022/03/13 04:02:21;;;;;;;;;;;;;;;10.77;36.12;101494.41;5051868;28;19950;-75
2022/03/13 04:04:46;;;;;;;;;;;;;;;10.39;36.84;101493.28;5053575;28;19920;-76
2022/03/13 04:07:13;;;;;;;;;;;;;;;10.53;36.72;101491.91;5066497;28;19924;-75
2022/03/13 04:09:39;;;;;;;;;;;;;;;10.11;37.68;101487.97;5051870;28;20007;-75
2022/03/13 04:12:08;;;;;;;;;;;;;;;10.15;37.92;101485.56;5051584;28;19971;-75
2022/03/13 04:14:36;;;;;;;;;;;;;;;10.42;36.90;101481.94;5055446;28;19944;-76
2022/03/13 04:17:02;;;;;;;;;;;;;;;10.48;37.02;101480.13;5056131;28;19924;-76
2022/03/13 04:19:28;;;;;;;;;;;;;;;10.53;36.78;101481.06;5053356;28;20393;-75
2022/03/13 04:21:54;;;;;;;;;;;;;;;10.57;36.44;101489.50;5037383;28;20261;-76
2022/03/13 04:24:19;;;;;;;;;;;;;;;10.43;37.12;101474.63;5055498;28;19924;-76
2022/03/13 04:26:44;;;;;;;;;;;;;;;10.40;37.01;101478.66;5055335;28;19925;-76
2022/03/13 04:29:10;;;;;;;;;;;;;;;9.97;37.67;101480.38;5055892;28;19917;-75
2022/03/13 04:31:39;;;;;;;;;;;;;;;9.81;37.93;101473.88;5055445;28;20291;-76
2022/03/13 04:34:04;;;;;;;;;;;;;;;10.35;37.10;101472.34;5020905;28;19955;-76
2022/03/13 04:36:33;;;;;;;;;;;;;;;10.33;36.96;101477.19;5055449;28;19917;-76
2022/03/13 04:39:02;;;;;;;;;;;;;;;9.98;37.59;101479.31;5055056;28;19920;-75
2022/03/13 04:41:28;;;;;;;;;;;;;;;10.15;37.53;101480.97;5055696;28;19934;-76
2022/03/13 04:43:53;;;;;;;;;;;;;;;9.96;37.47;101470.63;5055777;28;19920;-75
2022/03/13 04:46:19;;;;;;;;;;;;;;;10.62;35.90;101470.59;5053408;28;19928;-75
2022/03/13 04:48:45;;;;;;;;;;;;;;;10.35;36.21;101466.91;5054978;28;19920;-75
2022/03/13 04:51:10;;;;;;;;;;;;;;;10.36;36.04;101472.09;5055158;28;19921;-75
2022/03/13 04:53:36;;;;;;;;;;;;;;;9.36;37.50;101479.22;5055144;28;19917;-76
2022/03/13 04:56:01;;;;;;;;;;;;;;;9.59;37.24;101475.63;5055411;28;19921;-76
2022/03/13 04:58:26;;;;;;;;;;;;;;;10.33;35.63;101467.13;5054761;28;20410;-77
2022/03/13 05:00:55;;;;;;;;;;;;;;;9.32;37.09;101469.94;5053419;28;19972;-76
2022/03/13 05:03:20;;;;;;;;;;;;;;;10.11;35.87;101471.69;5049464;28;19977;-77
2022/03/13 05:05:45;;;;;;;;;;;;;;;9.99;35.64;101467.41;5034260;28;19925;-77
2022/03/13 05:08:13;;;;;;;;;;;;;;;9.63;35.98;101471.34;5035371;28;19917;-75
2022/03/13 05:10:40;;;;;;;;;;;;;;;10.23;34.94;101472.44;5034498;28;19921;-76
2022/03/13 05:13:11;;;;;;;;;;;;;;;10.42;34.23;101475.69;5034176;28;19921;-76
2022/03/13 05:15:37;;;;;;;;;;;;;;;10.08;34.84;101464.03;5039604;28;19928;-76
2022/03/13 05:18:06;;;;;;;;;;;;;;;9.60;35.44;101467.28;5054489;28;19956;-77
2022/03/13 05:20:35;;;;;;;;;;;;;;;10.21;34.47;101471.03;5053666;28;19944;-77
2022/03/13 05:23:06;;;;;;;;;;;;;;;10.30;33.91;101470.38;5054845;28;20495;-75
2022/03/13 05:25:32;;;;;;;;;;;;;;;10.46;33.44;101466.81;5054163;28;19935;-76
2022/03/13 05:27:58;;;;;;;;;;;;;;;10.08;33.88;101476.78;5054186;28;20004;-75
2022/03/13 05:30:24;;;;;;;;;;;;;;;10.30;33.91;101478.50;5053993;28;19921;-75
2022/03/13 05:32:49;;;;;;;;;;;;;;;10.15;34.38;101477.44;5054181;28;19928;-76
2022/03/13 05:35:15;;;;;;;;;;;;;;;10.30;34.32;101477.66;5041769;28;19913;-75
2022/03/13 05:37:41;;;;;;;;;;;;;;;10.44;33.72;101474.38;5034644;28;19929;-75
2022/03/13 05:40:06;;;;;;;;;;;;;;;10.51;33.60;101475.06;5034289;28;19974;-75
2022/03/13 05:42:32;;;;;;;;;;;;;;;10.52;33.85;101479.44;5034312;28;19932;-76
2022/03/13 05:44:57;;;;;;;;;;;;;;;10.40;34.26;101480.53;5033637;28;19925;-76
2022/03/13 05:47:23;;;;;;;;;;;;;;;10.47;33.88;101479.31;5034906;28;19928;-75
2022/03/13 05:49:48;;;;;;;;;;;;;;;10.43;33.70;101485.50;5034735;28;19929;-76
2022/03/13 05:52:14;;;;;;;;;;;;;;;10.39;33.86;101479.72;5050218;28;19926;-77
2022/03/13 05:54:40;;;;;;;;;;;;;;;10.40;34.28;101478.66;5069069;28;20556;-75
2022/03/13 05:57:06;;;;;;;;;;;;;;;10.38;34.04;101475.38;5053576;28;19995;-76
2022/03/13 05:59:33;;;;;;;;;;;;;;;10.27;34.40;101479.00;5053887;28;19925;-76
2022/03/13 06:02:01;;;;;;;;;;;;;;;10.21;34.45;101471.03;5054875;28;19963;-76
2022/03/13 06:04:26;;;;;;;;;;;;;;;10.10;34.29;101471.91;5053846;28;20205;-77
2022/03/13 06:06:51;;;;;;;;;;;;;;;10.19;34.30;101475.88;5053954;28;19917;-78
2022/03/13 06:09:16;;;;;;;;;;;;;;;9.99;34.43;101476.34;5035935;28;20373;-76
2022/03/13 06:11:42;;;;;;;;;;;;;;;10.03;34.21;101479.41;5053367;28;19921;-76
2022/03/13 06:14:08;;;;;;;;;;;;;;;9.89;34.08;101478.88;5053878;28;19921;-76
2022/03/13 06:16:35;;;;;;;;;;;;;;;10.23;33.61;101483.28;5035216;28;19921;-76
2022/03/13 06:19:00;;;;;;;;;;;;;;;10.38;33.34;101486.22;5053235;28;19920;-75
2022/03/13 06:21:25;;;;;;;;;;;;;;;10.33;33.35;101488.03;5053401;28;19931;-77
2022/03/13 06:23:51;;;;;;;;;;;;;;;10.45;33.19;101496.91;5053148;28;19921;-76
2022/03/13 06:26:16;;;;;;;;;;;;;;;10.28;32.91;101498.78;5053352;28;19967;-76
2022/03/13 06:28:41;;;;;;;;;;;;;;;10.49;32.77;101500.81;5053128;28;19951;-76
2022/03/13 06:31:07;;;;;;;;;;;;;;;10.21;33.11;101500.84;5050983;28;19921;-76
2022/03/13 06:33:32;;;;;;;;;;;;;;;10.37;33.28;101491.91;5053029;28;20381;-76
2022/03/13 06:35:57;;;;;;;;;;;;;;;10.29;33.41;101493.16;5051970;28;19940;-76
2022/03/13 06:38:23;;;;;;;;;;;;;;;10.63;32.54;101502.09;5052473;28;19948;-76
2022/03/13 06:40:48;;;;;;;;;;;;;;;10.47;32.79;101494.78;5052911;28;19944;-76
2022/03/13 06:43:13;;;;;;;;;;;;;;;10.54;32.75;101500.88;5051892;28;19943;-75
2022/03/13 06:45:38;;;;;;;;;;;;;;;10.31;32.71;101498.31;5053002;28;19943;-76
2022/03/13 06:48:04;;;;;;;;;;;;;;;10.48;32.54;101509.97;5053156;28;19920;-75
2022/03/13 06:50:29;;;;;;;;;;;;;;;10.90;31.48;101513.91;5053277;28;19917;-76
2022/03/13 06:52:55;;;;;;;;;;;;;;;10.54;32.06;101504.41;5049401;28;20051;-77
2022/03/13 06:55:22;;;;;;;;;;;;;;;10.85;31.62;101511.09;5052903;28;19972;-76
2022/03/13 06:57:47;;;;;;;;;;;;;;;10.73;31.80;101504.94;5033024;28;19917;-76
2022/03/13 07:00:14;;;;;;;;;;;;;;;11.16;30.92;101504.22;5033084;28;20714;-76
2022/03/13 07:02:39;;;;;;;;;;;;;;;10.77;31.10;101514.25;5033244;28;19921;-75
2022/03/13 07:05:05;;;;;;;;;;;;;;;11.28;30.35;101504.88;5033675;28;20054;-76
2022/03/13 07:07:30;;;;;;;;;;;;;;;10.90;30.82;101510.38;5035781;28;19948;-75
2022/03/13 07:09:57;;;;;;;;;;;;;;;11.15;30.44;101508.81;5052520;28;19987;-77
2022/03/13 07:12:23;;;;;;;;;;;;;;;11.06;30.21;101512.22;5052157;28;19970;-77
2022/03/13 07:14:48;;;;;;;;;;;;;;;11.10;30.60;101507.94;5051987;28;20274;-75
2022/03/13 07:17:15;;;;;;;;;;;;;;;10.81;30.79;101515.38;5052657;28;19943;-77
2022/03/13 07:19:43;;;;;;;;;;;;;;;11.02;30.49;101500.22;5052084;28;19998;-77
2022/03/13 07:22:12;;;;;;;;;;;;;;;11.36;29.46;101510.69;5052273;28;19951;-77
2022/03/13 07:24:38;;;;;;;;;;;;;;;10.83;30.08;101515.13;5052176;28;19959;-75
2022/03/13 07:27:03;;;;;;;;;;;;;;;11.09;29.66;101508.97;5052337;28;20297;-77
2022/03/13 07:29:28;;;;;;;;;;;;;;;11.34;29.66;101521.00;5052183;28;19917;-75
2022/03/13 07:31:56;;;;;;;;;;;;;;;11.04;29.61;101520.59;5052752;28;19917;-76
2022/03/13 07:34:21;;;;;;;;;;;;;;;11.33;29.58;101516.66;5052094;28;19924;-76
2022/03/13 07:36:47;;;;;;;;;;;;;;;11.70;28.82;101518.72;5052480;28;20003;-76
2022/03/13 07:39:14;;;;;;;;;;;;;;;11.60;28.95;101511.28;5052475;28;20008;-75
2022/03/13 07:41:39;;;;;;;;;;;;;;;11.52;28.77;101512.56;5052549;28;19924;-77
2022/03/13 07:44:04;;;;;;;;;;;;;;;11.85;28.38;101511.53;5052178;28;20357;-76
2022/03/13 07:46:30;;;;;;;;;;;;;;;11.53;28.42;101503.31;5051978;28;19924;-76
2022/03/13 07:48:55;;;;;;;;;;;;;;;11.62;28.38;101506.41;5053862;28;20295;-77
2022/03/13 07:51:20;;;;;;;;;;;;;;;11.04;29.47;101504.31;5055784;28;20284;-78
2022/03/13 07:53:46;;;;;;;;;;;;;;;11.51;28.97;101508.19;5055911;28;19921;-78
2022/03/13 07:56:11;;;;;;;;;;;;;;;11.48;29.18;101503.28;5056423;28;20289;-78
2022/03/13 07:58:36;;;;;;;;;;;;;;;11.58;28.87;101505.28;5055485;28;19927;-77
2022/03/13 08:01:01;;;;;;;;;;;;;;;11.67;28.66;101503.72;5055971;28;19975;-77
2022/03/13 08:03:29;;;;;;;;;;;;;;;11.48;28.93;101510.56;5056126;28;19940;-76
2022/03/13 08:05:55;;;;;;;;;;;;;;;12.11;27.88;101513.44;5055871;28;19924;-75
2022/03/13 08:08:20;;;;;;;;;;;;;;;12.03;28.07;101507.63;5055721;28;19917;-76
2022/03/13 08:10:45;;;;;;;;;;;;;;;12.39;27.28;101506.84;5055688;28;20027;-76
2022/03/13 08:13:11;;;;;;;;;;;;;;;11.77;28.06;101519.34;5055568;28;19974;-77
2022/03/13 08:15:36;;;;;;;;;;;;;;;12.46;27.71;101512.91;5055750;28;19925;-76
2022/03/13 08:18:02;;;;;;;;;;;;;;;11.74;28.38;101517.13;5056028;28;19917;-77
2022/03/13 08:20:28;;;;;;;;;;;;;;;12.77;26.99;101505.81;5055856;28;19921;-77
2022/03/13 08:22:53;;;;;;;;;;;;;;;12.95;26.64;101519.78;5071482;28;20369;-76
2022/03/13 08:25:19;;;;;;;;;;;;;;;12.74;26.79;101507.13;5051420;28;20400;-76
2022/03/13 08:27:45;;;;;;;;;;;;;;;12.81;26.83;101515.88;5050954;28;19916;-77
2022/03/13 08:30:11;;;;;;;;;;;;;;;12.55;26.68;101507.81;5042674;28;19943;-75
2022/03/13 08:32:37;;;;;;;;;;;;;;;12.85;26.75;101516.19;5049679;28;20404;-76
2022/03/13 08:35:02;;;;;;;;;;;;;;;12.39;27.04;101512.31;5049567;28;19917;-75
2022/03/13 08:37:28;;;;;;;;;;;;;;;13.49;25.78;101514.06;5044537;28;19924;-75
2022/03/13 08:39:53;;;;;;;;;;;;;;;13.19;26.33;101504.66;5049018;28;19921;-77
2022/03/13 08:42:18;;;;;;;;;;;;;;;12.48;26.59;101507.22;5051784;28;20432;-77
2022/03/13 08:44:44;;;;;;;;;;;;;;;12.58;26.62;101505.41;5048635;28;19932;-77
2022/03/13 08:47:09;;;;;;;;;;;;;;;12.75;26.72;101503.31;5049813;28;20015;-77
2022/03/13 08:49:34;;;;;;;;;;;;;;;13.46;25.80;101498.25;5045981;28;19979;-76
2022/03/13 08:52:00;;;;;;;;;;;;;;;13.26;25.87;101502.50;5051136;28;19935;-77
2022/03/13 08:54:25;;;;;;;;;;;;;;;13.35;25.29;101500.13;5053705;28;19924;-76
2022/03/13 08:56:50;;;;;;;;;;;;;;;13.83;24.79;101498.91;5053215;28;19921;-76
2022/03/13 08:59:16;;;;;;;;;;;;;;;12.10;26.71;101502.81;5046664;28;19924;-76
2022/03/13 09:01:42;;;;;;;;;;;;;;;13.14;25.32;101499.16;5053941;28;20300;-77
2022/03/13 09:04:07;;;;;;;;;;;;;;;13.52;25.19;101506.16;5053980;28;19920;-78
2022/03/13 09:06:32;;;;;;;;;;;;;;;12.79;25.50;101507.16;5053834;28;20028;-77
2022/03/13 09:08:58;;;;;;;;;;;;;;;13.24;25.78;101501.94;5050783;28;19921;-77
2022/03/13 09:11:23;;;;;;;;;;;;;;;13.60;25.58;101505.66;5054052;28;19916;-76
2022/03/13 09:13:49;;;;;;;;;;;;;;;14.30;24.77;101498.69;5051240;28;20418;-77
2022/03/13 09:16:14;;;;;;;;;;;;;;;14.06;24.91;101496.47;5052430;28;19921;-78
2022/03/13 09:18:40;;;;;;;;;;;;;;;14.30;24.62;101499.50;5049993;28;19921;-78
2022/03/13 09:21:05;;;;;;;;;;;;;;;14.87;24.00;101504.63;5049722;28;19940;-77
2022/03/13 09:23:31;;;;;;;;;;;;;;;14.92;24.01;101504.59;5047867;28;19924;-78
2022/03/13 09:25:56;;;;;;;;;;;;;;;14.04;24.92;101501.38;5045905;28;19917;-77
2022/03/13 09:28:21;;;;;;;;;;;;;;;14.92;24.02;101491.75;5048795;28;19932;-77
2022/03/13 09:30:47;;;;;;;;;;;;;;;14.91;23.90;101492.84;5048552;28;20634;-78
2022/03/13 09:33:12;;;;;;;;;;;;;;;15.51;23.09;101491.81;5052864;28;19921;-77
2022/03/13 09:35:38;;;;;;;;;;;;;;;15.60;23.32;101486.56;5053163;28;20368;-75
2022/03/13 09:38:03;;;;;;;;;;;;;;;15.21;23.83;101482.94;5051033;28;19931;-77
2022/03/13 09:40:28;;;;;;;;;;;;;;;15.07;23.31;101479.97;5049174;28;19921;-75
2022/03/13 09:42:54;;;;;;;;;;;;;;;14.98;23.61;101474.25;5051209;28;19936;-77
2022/03/13 09:45:20;;;;;;;;;;;;;;;15.18;23.66;101480.75;5046599;28;20030;-77
2022/03/13 09:47:46;;;;;;;;;;;;;;;14.98;24.03;101482.44;5044705;28;19982;-77
2022/03/13 09:50:12;;;;;;;;;;;;;;;15.83;22.45;101480.44;5043288;28;19925;-77
2022/03/13 09:52:40;;;;;;;;;;;;;;;15.95;22.79;101480.06;5051060;28;20425;-78
2022/03/13 09:55:05;;;;;;;;;;;;;;;15.98;22.63;101471.28;5049992;28;20392;-79
2022/03/13 09:57:31;;;;;;;;;;;;;;;15.90;22.63;101461.75;5052166;28;19979;-78
2022/03/13 09:59:56;;;;;;;;;;;;;;;15.87;22.83;101459.59;5050487;28;19940;-77
2022/03/13 10:02:31;;;;;;;;;;;;;;;15.02;23.87;101451.84;5046876;28;19986;-77
2022/03/13 10:04:56;;;;;;;;;;;;;;;14.92;23.93;101455.41;5046859;28;19921;-79
2022/03/13 10:07:22;;;;;;;;;;;;;;;15.84;23.33;101460.97;5047499;28;20384;-78
2022/03/13 10:09:47;;;;;;;;;;;;;;;15.81;23.15;101458.84;5050960;28;20024;-77
2022/03/13 10:12:13;;;;;;;;;;;;;;;15.63;23.44;101450.44;5051233;28;19920;-81
2022/03/13 10:14:58;;;;;;;;;;;;;;;15.70;22.97;101449.00;5053473;28;19924;-79
2022/03/13 10:17:27;;;;;;;;;;;;;;;15.83;23.08;101450.34;5050548;28;19948;-76
2022/03/13 10:19:53;;;;;;;;;;;;;;;15.84;23.15;101451.94;5051378;28;19921;-77
2022/03/13 10:22:18;;;;;;;;;;;;;;;15.63;23.08;101455.91;5052848;28;19927;-76
2022/03/13 10:24:44;;;;;;;;;;;;;;;16.39;22.65;101456.13;5052125;28;19931;-79
2022/03/13 10:27:10;;;;;;;;;;;;;;;16.82;22.50;101449.66;5049226;28;19925;-78
2022/03/13 10:29:35;;;;;;;;;;;;;;;16.13;22.98;101449.28;5054723;28;19929;-75
2022/03/13 10:32:02;;;;;;;;;;;;;;;15.90;23.44;101455.47;5053590;28;19988;-76
2022/03/13 10:34:28;;;;;;;;;;;;;;;16.56;22.57;101437.34;5047042;28;19940;-81
2022/03/13 10:36:53;;;;;;;;;;;;;;;16.99;22.43;101451.94;5036883;28;20326;-79
2022/03/13 10:39:20;;;;;;;;;;;;;;;15.82;23.13;101440.47;5048166;28;20011;-78
2022/03/13 10:41:46;;;;;;;;;;;;;;;16.39;22.42;101436.97;5051914;28;20421;-81
2022/03/13 10:44:16;;;;;;;;;;;;;;;16.51;22.80;101429.16;5052853;28;19928;-82
2022/03/13 10:46:42;;;;;;;;;;;;;;;17.21;22.31;101436.56;5052832;28;20430;-82
2022/03/13 10:49:09;;;;;;;;;;;;;;;17.01;22.66;101430.53;5052590;28;19928;-81
2022/03/13 10:51:45;;;;;;;;;;;;;;;17.06;22.79;101446.91;5053563;28;19925;-79
2022/03/13 10:54:25;;;;;;;;;;;;;;;17.28;22.55;101431.56;5046967;28;19917;-78
2022/03/13 10:57:03;;;;;;;;;;;;;;;17.33;22.75;101427.97;5048864;28;19921;-80
2022/03/13 10:59:43;;;;;;;;;;;;;;;17.52;22.19;101424.13;5053759;28;19916;-79
2022/03/13 11:02:21;;;;;;;;;;;;;;;17.50;21.82;101431.81;5051199;28;19917;-80
2022/03/13 11:04:55;;;;;;;;;;;;;;;17.40;22.04;101425.66;5051123;28;19924;-78
2022/03/13 11:07:20;;;;;;;;;;;;;;;16.88;22.57;101426.59;5050340;28;19925;-79
2022/03/13 11:09:46;;;;;;;;;;;;;;;17.21;22.30;101417.38;5051191;28;19924;-81
2022/03/13 11:12:19;;;;;;;;;;;;;;;17.82;21.65;101416.53;5052110;28;19927;-81
2022/03/13 11:15:01;;;;;;;;;;;;;;;18.05;21.75;101410.94;5049483;28;19932;-81
2022/03/13 11:17:33;;;;;;;;;;;;;;;18.29;21.29;101417.06;5066309;28;20254;-81
2022/03/13 11:19:59;;;;;;;;;;;;;;;17.16;22.83;101417.44;5050852;28;19968;-80
2022/03/13 11:22:25;;;;;;;;;;;;;;;18.01;22.03;101420.03;5048205;28;20008;-82
2022/03/13 11:24:58;;;;;;;;;;;;;;;17.98;21.55;101415.16;5050219;28;19929;-81
2022/03/13 11:27:26;;;;;;;;;;;;;;;17.61;21.54;101405.03;5051198;28;19917;-78
2022/03/13 11:29:53;;;;;;;;;;;;;;;17.53;22.00;101397.47;5050758;28;19936;-79
2022/03/13 11:32:37;;;;;;;;;;;;;;;17.26;22.41;101400.88;5049577;28;20384;-80
2022/03/13 11:35:14;;;;;;;;;;;;;;;18.07;21.87;101399.63;5049873;28;19920;-81
2022/03/13 11:37:41;;;;;;;;;;;;;;;18.46;21.92;101391.78;5049487;28;19927;-80
2022/03/13 11:40:07;;;;;;;;;;;;;;;17.46;22.50;101389.63;5048661;28;20367;-80
2022/03/13 11:42:51;;;;;;;;;;;;;;;17.82;22.57;101383.56;5049184;28;19920;-80
2022/03/13 11:45:30;;;;;;;;;;;;;;;17.82;22.23;101386.31;5048482;28;20411;-79
2022/03/13 11:48:14;;;;;;;;;;;;;;;17.98;22.52;101387.69;5049462;28;19917;-81
2022/03/13 11:50:58;;;;;;;;;;;;;;;17.25;22.98;101379.22;5048941;28;19927;-81
2022/03/13 11:53:27;;;;;;;;;;;;;;;17.30;23.53;101381.88;5048967;28;20003;-80
2022/03/13 11:56:02;;;;;;;;;;;;;;;18.26;21.68;101378.41;5053115;28;19925;-78
2022/03/13 11:58:48;;;;;;;;;;;;;;;18.27;22.14;101382.81;5044322;28;20294;-78
2022/03/13 12:01:19;;;;;;;;;;;;;;;17.26;23.02;101381.66;5052688;28;19920;-77
2022/03/13 12:04:09;;;;;;;;;;;;;;;17.59;22.83;101376.28;5056533;28;20000;-78
2022/03/13 12:06:41;;;;;;;;;;;;;;;17.55;22.91;101376.03;5051403;28;19924;-74
2022/03/13 12:09:15;;;;;;;;;;;;;;;17.30;22.87;101371.72;5046125;28;19928;-76
2022/03/13 12:11:46;;;;;;;;;;;;;;;17.81;22.61;101374.53;5048993;28;20004;-79
2022/03/13 12:14:13;;;;;;;;;;;;;;;18.52;22.11;101371.31;5043846;28;19964;-79
2022/03/13 12:16:39;;;;;;;;;;;;;;;18.73;21.63;101369.00;5029134;28;19936;-78
2022/03/13 12:19:05;;;;;;;;;;;;;;;18.59;22.18;101373.66;5028970;28;19922;-78
2022/03/13 12:21:31;;;;;;;;;;;;;;;18.58;21.71;101366.53;5043250;28;19921;-77
2022/03/13 12:24:08;;;;;;;;;;;;;;;18.76;21.94;101363.72;5027343;28;20007;-78
2022/03/13 12:26:38;;;;;;;;;;;;;;;18.64;21.54;101362.56;5028327;28;19929;-77
2022/03/13 12:29:04;;;;;;;;;;;;;;;18.88;21.76;101357.69;5026763;28;19921;-77
2022/03/13 12:31:37;;;;;;;;;;;;;;;18.61;21.77;101361.22;5027552;28;19932;-75
2022/03/13 12:34:03;;;;;;;;;;;;;;;18.72;22.06;101351.69;5027042;28;20403;-76
2022/03/13 12:36:36;;;;;;;;;;;;;;;18.70;21.56;101347.59;5032305;28;19921;-77